createdAt,value
2023-01-30T00:02:10.043Z,7.32
2023-01-30T00:04:41.513Z,6.88
2023-01-30T00:07:13.002Z,7.40
2023-01-30T00:09:44.414Z,6.88
2023-01-30T00:12:15.877Z,7.70
2023-01-30T00:14:47.294Z,7.30
2023-01-30T00:17:18.780Z,6.90
2023-01-30T00:19:50.208Z,7.43
2023-01-30T00:22:21.700Z,7.77
2023-01-30T00:24:53.239Z,7.00
2023-01-30T00:27:24.732Z,7.30
2023-01-30T00:32:47.583Z,6.50
2023-01-30T00:35:19.037Z,7.75
2023-01-30T00:37:50.485Z,7.22
2023-01-30T00:40:21.921Z,6.57
2023-01-30T00:42:53.754Z,6.90
2023-01-30T00:45:25.236Z,6.70
2023-01-30T00:47:58.403Z,6.43
2023-01-30T00:50:29.866Z,6.75
2023-01-30T00:53:01.282Z,7.25
2023-01-30T00:55:32.779Z,6.60
2023-01-30T00:58:04.620Z,5.90
2023-01-30T01:00:36.762Z,5.78
2023-01-30T01:03:08.319Z,5.72
2023-01-30T01:05:39.865Z,5.43
2023-01-30T01:08:11.907Z,5.32
2023-01-30T01:10:43.466Z,5.15
2023-01-30T01:13:14.978Z,5.43
2023-01-30T01:15:46.447Z,4.90
2023-01-30T01:18:17.908Z,5.47
2023-01-30T01:20:49.333Z,5.05
2023-01-30T01:23:20.735Z,5.27
2023-01-30T01:25:52.189Z,5.38
2023-01-30T01:28:23.636Z,4.95
2023-01-30T01:30:55.104Z,5.55
2023-01-30T01:33:28.018Z,5.15
2023-01-30T01:35:59.474Z,5.05
2023-01-30T01:38:30.951Z,5.53
2023-01-30T01:41:02.512Z,5.30
2023-01-30T01:43:37.589Z,5.30
2023-01-30T01:46:22.511Z,5.28
2023-01-30T01:48:58.019Z,5.87
2023-01-30T01:52:07.198Z,5.38
2023-01-30T01:54:44.384Z,5.30
2023-01-30T01:57:23.333Z,4.87
2023-01-30T02:00:02.391Z,5.17
2023-01-30T02:02:34.647Z,5.30
2023-01-30T02:05:07.023Z,5.07
2023-01-30T02:07:46.087Z,4.63
2023-01-30T02:10:29.654Z,5.25
2023-01-30T02:13:01.106Z,4.70
2023-01-30T02:15:33.586Z,4.93
2023-01-30T02:18:05.169Z,4.60
2023-01-30T02:20:55.355Z,5.03
2023-01-30T02:24:02.375Z,4.47
2023-01-30T02:26:54.571Z,5.10
2023-01-30T02:29:53.093Z,4.88
2023-01-30T02:32:33.510Z,4.25
2023-01-30T02:35:20.256Z,4.72
2023-01-30T02:38:22.879Z,4.78
2023-01-30T02:41:02.203Z,4.20
2023-01-30T02:43:41.776Z,4.50
2023-01-30T02:46:23.753Z,4.60
2023-01-30T02:49:06.010Z,5.85
2023-01-30T02:51:38.937Z,4.68
2023-01-30T02:54:13.516Z,4.65
2023-01-30T02:56:50.955Z,4.85
2023-01-30T02:59:31.503Z,5.72
2023-01-30T03:02:27.482Z,4.97
2023-01-30T03:05:27.577Z,5.28
2023-01-30T03:08:04.577Z,4.80
2023-01-30T03:10:50.985Z,5.35
2023-01-30T03:13:37.506Z,5.70
2023-01-30T03:16:31.980Z,5.88
2023-01-30T03:19:05.187Z,5.32
2023-01-30T03:21:43.632Z,5.28
2023-01-30T03:24:15.799Z,6.20
2023-01-30T03:26:54.816Z,5.53
2023-01-30T03:29:26.341Z,6.13
2023-01-30T03:31:57.779Z,5.82
2023-01-30T03:34:29.315Z,5.70
2023-01-30T03:37:00.956Z,5.57
2023-01-30T03:39:32.562Z,5.28
2023-01-30T03:42:04.178Z,6.22
2023-01-30T03:44:35.601Z,5.28
2023-01-30T03:47:07.046Z,6.32
2023-01-30T03:49:38.635Z,5.97
2023-01-30T03:52:10.170Z,5.45
2023-01-30T03:54:41.639Z,5.82
2023-01-30T03:57:13.082Z,5.72
2023-01-30T03:59:44.540Z,6.13
2023-01-30T04:02:16.020Z,5.18
2023-01-30T04:04:47.544Z,4.78
2023-01-30T04:07:19.393Z,4.82
2023-01-30T04:09:50.821Z,4.45
2023-01-30T04:12:22.385Z,4.40
2023-01-30T04:14:53.924Z,3.95
2023-01-30T04:17:25.395Z,3.83
2023-01-30T04:19:56.803Z,3.70
2023-01-30T04:22:28.247Z,3.50
2023-01-30T04:24:59.661Z,3.47
2023-01-30T04:27:31.116Z,3.63
2023-01-30T04:30:02.870Z,3.30
2023-01-30T04:32:34.332Z,3.25
2023-01-30T04:35:06.071Z,3.55
2023-01-30T04:37:37.527Z,3.03
2023-01-30T04:40:09.565Z,3.85
2023-01-30T04:42:41.026Z,4.25
2023-01-30T04:45:12.487Z,4.40
2023-01-30T04:47:43.943Z,4.30
2023-01-30T04:50:15.751Z,4.25
2023-01-30T04:52:47.216Z,4.18
2023-01-30T04:55:18.991Z,4.67
2023-01-30T04:57:50.631Z,4.03
2023-01-30T05:00:22.211Z,4.57
2023-01-30T05:02:54.044Z,4.10
2023-01-30T05:05:26.943Z,4.40
2023-01-30T05:07:58.652Z,4.57
2023-01-30T05:10:30.057Z,4.30
2023-01-30T05:13:03.347Z,5.15
2023-01-30T05:15:34.780Z,4.80
2023-01-30T05:18:06.182Z,5.10
2023-01-30T05:20:37.653Z,4.45
2023-01-30T05:23:09.084Z,5.97
2023-01-30T05:25:40.806Z,4.82
2023-01-30T05:28:12.264Z,5.30
2023-01-30T05:30:45.595Z,5.67
2023-01-30T05:33:17.787Z,6.40
2023-01-30T05:35:50.502Z,6.28
2023-01-30T05:38:26.590Z,5.63
2023-01-30T05:41:03.271Z,6.18
2023-01-30T05:43:35.160Z,7.43
2023-01-30T05:46:07.715Z,7.60
2023-01-30T05:48:39.438Z,6.75
2023-01-30T05:51:37.230Z,6.63
2023-01-30T05:54:08.884Z,6.83
2023-01-30T05:56:40.280Z,7.05
2023-01-30T05:59:12.123Z,6.53
2023-01-30T06:01:43.552Z,6.20
2023-01-30T06:04:15.024Z,6.50
2023-01-30T06:06:49.322Z,6.10
2023-01-30T06:09:20.790Z,6.03
2023-01-30T06:11:52.440Z,6.07
2023-01-30T06:14:24.541Z,6.93
2023-01-30T06:16:55.948Z,6.45
2023-01-30T06:19:27.427Z,6.80
2023-01-30T06:21:58.902Z,6.97
2023-01-30T06:24:30.346Z,7.47
2023-01-30T06:27:01.824Z,7.35
2023-01-30T06:29:33.231Z,6.78
2023-01-30T06:32:04.969Z,6.43
2023-01-30T06:34:36.430Z,6.60
2023-01-30T06:37:07.851Z,7.53
2023-01-30T06:39:39.295Z,7.22
2023-01-30T06:42:10.927Z,6.85
2023-01-30T06:44:42.336Z,6.27
2023-01-30T06:47:13.784Z,6.57
2023-01-30T06:49:45.284Z,6.32
2023-01-30T06:52:16.679Z,5.72
2023-01-30T06:54:48.090Z,5.80
2023-01-30T06:57:19.498Z,6.45
2023-01-30T06:59:50.923Z,5.32
2023-01-30T07:02:22.315Z,5.75
2023-01-30T07:04:53.707Z,5.70
2023-01-30T07:07:25.150Z,6.35
2023-01-30T07:10:07.445Z,5.47
2023-01-30T07:12:39.971Z,6.28
2023-01-30T07:15:11.792Z,5.53
2023-01-30T07:17:43.300Z,6.17
2023-01-30T07:20:15.057Z,6.18
2023-01-30T07:22:54.226Z,5.47
2023-01-30T07:25:27.255Z,5.13
2023-01-30T07:28:02.727Z,5.30
2023-01-30T07:30:34.889Z,5.67
2023-01-30T07:33:06.585Z,5.95
2023-01-30T07:35:38.195Z,6.65
2023-01-30T07:38:09.702Z,6.47
2023-01-30T07:40:41.122Z,6.00
2023-01-30T07:43:13.839Z,6.70
2023-01-30T07:45:48.064Z,6.22
2023-01-30T07:48:19.986Z,5.55
2023-01-30T07:50:55.765Z,6.03
2023-01-30T07:53:27.366Z,5.75
2023-01-30T07:55:58.865Z,6.65
2023-01-30T07:58:30.929Z,6.20
2023-01-30T08:01:02.652Z,6.22
2023-01-30T08:03:34.109Z,5.80
2023-01-30T08:06:05.992Z,5.45
2023-01-30T08:08:37.457Z,6.10
2023-01-30T08:11:09.570Z,6.45
2023-01-30T08:13:41.129Z,6.10
2023-01-30T08:16:12.744Z,5.75
2023-01-30T08:18:44.205Z,6.40
2023-01-30T08:21:15.657Z,5.63
2023-01-30T08:23:47.114Z,6.03
2023-01-30T08:26:18.659Z,5.72
2023-01-30T08:28:50.154Z,6.10
2023-01-30T08:31:21.906Z,6.40
2023-01-30T08:33:53.311Z,6.63
2023-01-30T08:36:24.763Z,5.90
2023-01-30T08:38:56.219Z,5.82
2023-01-30T08:41:27.683Z,6.07
2023-01-30T08:43:59.098Z,6.03
2023-01-30T08:46:30.603Z,6.00
2023-01-30T08:49:02.061Z,5.95
2023-01-30T08:51:33.653Z,5.95
2023-01-30T08:54:05.382Z,5.95
2023-01-30T08:56:36.791Z,5.80
2023-01-30T08:59:08.216Z,4.97
2023-01-30T09:01:39.701Z,6.22
2023-01-30T09:04:11.187Z,5.18
2023-01-30T09:06:42.741Z,6.25
2023-01-30T09:09:14.204Z,6.10
2023-01-30T09:11:45.648Z,5.38
2023-01-30T09:14:17.103Z,5.60
2023-01-30T09:16:50.129Z,5.82
2023-01-30T09:19:23.322Z,5.78
2023-01-30T09:21:55.979Z,4.95
2023-01-30T09:24:27.479Z,5.78
2023-01-30T09:26:59.203Z,5.37
2023-01-30T09:29:30.747Z,5.60
2023-01-30T09:32:02.184Z,5.15
2023-01-30T09:34:33.664Z,5.97
2023-01-30T09:37:05.305Z,6.00
2023-01-30T09:39:36.766Z,6.15
2023-01-30T09:42:29.987Z,5.78
2023-01-30T09:45:24.139Z,6.68
2023-01-30T09:48:10.238Z,6.00
2023-01-30T09:50:55.500Z,5.47
2023-01-30T09:53:35.759Z,5.70
2023-01-30T09:56:07.596Z,5.85
2023-01-30T09:58:49.146Z,6.00
2023-01-30T10:01:33.083Z,5.68
2023-01-30T10:04:16.487Z,6.60
2023-01-30T10:07:11.023Z,6.07
2023-01-30T10:09:51.549Z,6.22
2023-01-30T10:12:47.728Z,5.40
2023-01-30T10:15:43.681Z,6.07
2023-01-30T10:18:23.952Z,6.97
2023-01-30T10:21:24.414Z,6.00
2023-01-30T10:24:23.911Z,6.38
2023-01-30T10:26:56.839Z,6.20
2023-01-30T10:29:33.315Z,5.97
2023-01-30T10:32:14.439Z,6.80
2023-01-30T10:34:52.692Z,7.22
2023-01-30T10:37:30.033Z,6.63
2023-01-30T10:40:18.166Z,6.20
2023-01-30T10:43:21.286Z,6.72
2023-01-30T10:46:07.938Z,6.78
2023-01-30T10:48:58.784Z,6.80
2023-01-30T10:51:30.601Z,6.20
2023-01-30T10:54:19.754Z,7.10
2023-01-30T10:57:25.718Z,6.20
2023-01-30T11:00:06.830Z,6.72
2023-01-30T11:02:53.259Z,7.13
2023-01-30T11:05:27.390Z,6.65
2023-01-30T11:07:58.865Z,7.10
2023-01-30T11:10:30.814Z,6.85
2023-01-30T11:13:23.999Z,7.07
2023-01-30T11:16:03.140Z,6.00
2023-01-30T11:21:44.416Z,6.63
2023-01-30T11:24:19.951Z,7.75
2023-01-30T11:26:51.474Z,6.80
2023-01-30T11:29:33.859Z,7.25
2023-01-30T11:32:12.125Z,6.57
2023-01-30T11:34:44.106Z,7.55
2023-01-30T11:37:27.162Z,6.82
2023-01-30T11:39:58.674Z,7.68
2023-01-30T11:42:31.627Z,8.10
2023-01-30T11:45:16.688Z,7.60
2023-01-30T11:48:02.201Z,6.60
2023-01-30T11:50:43.410Z,7.85
2023-01-30T11:53:36.557Z,7.43
2023-01-30T11:56:49.848Z,7.60
2023-01-30T11:59:43.824Z,7.28
2023-01-30T12:02:38.080Z,7.55
2023-01-30T12:05:32.649Z,7.25
2023-01-30T12:08:40.291Z,6.82
2023-01-30T12:11:39.292Z,7.57
2023-01-30T12:14:35.051Z,7.22
2023-01-30T12:17:12.555Z,7.38
2023-01-30T12:20:12.878Z,7.50
2023-01-30T12:23:22.933Z,7.60
2023-01-30T12:26:06.360Z,8.20
2023-01-30T12:28:52.214Z,7.53
2023-01-30T12:31:35.034Z,7.32
2023-01-30T12:34:09.636Z,7.40
2023-01-30T12:37:10.162Z,7.05
2023-01-30T12:39:56.777Z,6.87
2023-01-30T12:42:53.118Z,7.03
2023-01-30T12:45:27.180Z,7.03
2023-01-30T12:48:20.658Z,7.37
2023-01-30T12:51:21.295Z,6.63
2023-01-30T12:54:28.823Z,7.77
2023-01-30T12:57:17.055Z,7.55
2023-01-30T13:00:05.260Z,7.68
2023-01-30T13:02:39.639Z,8.00
2023-01-30T13:05:25.415Z,8.10
2023-01-30T13:08:14.621Z,8.43
2023-01-30T13:10:57.700Z,7.60
2023-01-30T13:13:50.538Z,7.70
2023-01-30T13:16:36.747Z,7.20
2023-01-30T13:19:44.145Z,7.30
2023-01-30T13:22:41.065Z,7.00
2023-01-30T13:25:21.815Z,7.05
2023-01-30T13:28:00.949Z,6.63
2023-01-30T13:30:35.436Z,7.18
2023-01-30T13:33:13.660Z,7.38
2023-01-30T13:35:56.527Z,7.60
2023-01-30T13:38:29.862Z,7.82
2023-01-30T13:41:03.653Z,7.07
2023-01-30T13:43:47.512Z,7.30
2023-01-30T13:46:27.688Z,7.07
2023-01-30T13:49:28.467Z,7.13
2023-01-30T13:52:30.316Z,6.40
2023-01-30T13:55:26.865Z,7.55
2023-01-30T13:58:23.082Z,7.43
2023-01-30T14:00:55.931Z,7.53
2023-01-30T14:03:29.999Z,7.23
2023-01-30T14:06:04.152Z,7.30
2023-01-30T14:08:38.752Z,6.90
2023-01-30T14:11:37.976Z,7.60
2023-01-30T14:14:18.416Z,6.65
2023-01-30T14:17:07.237Z,7.53
2023-01-30T14:19:59.553Z,8.30
2023-01-30T14:22:34.871Z,7.28
2023-01-30T14:25:25.214Z,6.90
2023-01-30T14:27:59.745Z,6.55
2023-01-30T14:30:31.209Z,7.40
2023-01-30T14:33:05.275Z,8.15
2023-01-30T14:35:36.945Z,8.05
2023-01-30T14:38:19.102Z,7.38
2023-01-30T14:40:59.360Z,7.07
2023-01-30T14:43:43.011Z,6.57
2023-01-30T14:46:17.515Z,7.00
2023-01-30T14:48:48.980Z,7.90
2023-01-30T14:51:35.143Z,7.43
2023-01-30T14:54:12.400Z,7.13
2023-01-30T14:56:54.414Z,6.72
2023-01-30T15:00:15.106Z,7.40
2023-01-30T15:02:55.926Z,6.95
2023-01-30T15:05:32.411Z,8.10
2023-01-30T15:08:30.129Z,7.03
2023-01-30T15:11:11.918Z,7.57
2023-01-30T15:14:03.775Z,7.72
2023-01-30T15:16:48.894Z,7.82
2023-01-30T15:19:51.401Z,8.93
2023-01-30T15:22:47.330Z,8.13
2023-01-30T15:25:35.678Z,8.10
2023-01-30T15:28:25.681Z,7.80
2023-01-30T15:31:04.267Z,9.00
2023-01-30T15:33:47.654Z,7.97
2023-01-30T15:36:34.022Z,8.35
2023-01-30T15:39:20.786Z,8.43
2023-01-30T15:41:54.124Z,8.18
2023-01-30T15:44:43.479Z,8.52
2023-01-30T15:47:54.190Z,8.88
2023-01-30T15:50:25.766Z,8.23
2023-01-30T15:52:57.347Z,8.38
2023-01-30T15:55:35.882Z,8.13
2023-01-30T15:58:18.579Z,8.10
2023-01-30T16:00:53.588Z,9.05
2023-01-30T16:03:29.903Z,9.48
2023-01-30T16:06:01.325Z,8.80
2023-01-30T16:08:36.280Z,9.02
2023-01-30T16:11:07.704Z,8.30
2023-01-30T16:13:39.151Z,9.38
2023-01-30T16:16:18.929Z,8.77
2023-01-30T16:19:00.575Z,8.82
2023-01-30T16:21:35.295Z,8.48
2023-01-30T16:24:28.416Z,8.80
2023-01-30T16:27:04.553Z,8.10
2023-01-30T16:29:47.989Z,7.50
2023-01-30T16:32:26.080Z,7.70
2023-01-30T16:35:27.337Z,8.05
2023-01-30T16:38:01.597Z,8.25
2023-01-30T16:40:45.404Z,8.45
2023-01-30T16:43:24.383Z,7.80
2023-01-30T16:46:16.098Z,7.90
2023-01-30T16:48:47.606Z,7.95
2023-01-30T16:51:22.619Z,8.43
2023-01-30T16:53:58.731Z,7.43
2023-01-30T16:56:33.709Z,7.37
2023-01-30T16:59:05.241Z,7.80
2023-01-30T17:01:40.231Z,6.60
2023-01-30T17:04:23.586Z,7.97
2023-01-30T17:07:01.164Z,6.43
2023-01-30T17:09:45.114Z,8.05
2023-01-30T17:12:25.658Z,6.60
2023-01-30T17:15:23.156Z,7.13
2023-01-30T17:17:54.661Z,7.20
2023-01-30T17:20:33.217Z,6.53
2023-01-30T17:23:08.048Z,7.10
2023-01-30T17:25:44.681Z,6.95
2023-01-30T17:28:19.773Z,7.53
2023-01-30T17:30:51.375Z,6.70
2023-01-30T17:33:22.934Z,7.03
2023-01-30T17:35:54.415Z,7.03
2023-01-30T17:38:25.896Z,7.15
2023-01-30T17:40:57.363Z,7.38
2023-01-30T17:43:28.808Z,7.13
2023-01-30T17:46:00.573Z,7.03
2023-01-30T17:48:31.996Z,7.53
2023-01-30T17:51:03.540Z,6.75
2023-01-30T17:53:35.118Z,6.43
2023-01-30T17:56:19.534Z,7.45
2023-01-30T17:58:50.994Z,6.57
2023-01-30T18:01:22.488Z,6.88
2023-01-30T18:03:53.939Z,6.73
2023-01-30T18:06:25.793Z,7.55
2023-01-30T18:08:57.628Z,6.63
2023-01-30T18:11:29.040Z,6.80
2023-01-30T18:14:00.453Z,6.80
2023-01-30T18:16:31.976Z,6.82
2023-01-30T18:19:06.039Z,7.13
2023-01-30T18:21:38.679Z,6.07
2023-01-30T18:24:10.177Z,6.03
2023-01-30T18:26:42.054Z,5.90
2023-01-30T18:29:13.832Z,6.25
2023-01-30T18:31:45.399Z,6.43
2023-01-30T18:34:16.887Z,5.43
2023-01-30T18:36:48.362Z,5.07
2023-01-30T18:39:19.773Z,5.63
2023-01-30T18:41:51.393Z,5.40
2023-01-30T18:44:22.793Z,5.33
2023-01-30T18:46:54.232Z,4.93
2023-01-30T18:49:25.750Z,5.07
2023-01-30T18:51:57.175Z,4.88
2023-01-30T18:54:28.675Z,5.20
2023-01-30T18:57:00.115Z,4.72
2023-01-30T18:59:31.528Z,5.13
2023-01-30T19:02:02.974Z,4.47
2023-01-30T19:04:34.461Z,5.05
2023-01-30T19:07:06.565Z,4.90
2023-01-30T19:09:38.021Z,5.45
2023-01-30T19:12:09.517Z,5.75
2023-01-30T19:14:40.958Z,5.90
2023-01-30T19:17:12.487Z,5.22
2023-01-30T19:19:43.953Z,6.05
2023-01-30T19:22:17.211Z,5.78
2023-01-30T19:24:49.381Z,5.45
2023-01-30T19:27:21.127Z,5.38
2023-01-30T19:29:52.536Z,5.45
2023-01-30T19:32:23.999Z,5.40
2023-01-30T19:34:55.442Z,4.90
2023-01-30T19:37:26.865Z,5.00
2023-01-30T19:39:58.328Z,4.93
2023-01-30T19:42:29.785Z,5.30
2023-01-30T19:45:01.319Z,5.00
2023-01-30T19:47:32.809Z,4.90
2023-01-30T19:50:04.690Z,5.30
2023-01-30T19:52:36.144Z,5.25
2023-01-30T19:55:07.997Z,4.27
2023-01-30T19:57:39.385Z,4.60
2023-01-30T20:00:11.636Z,4.07
2023-01-30T20:02:43.117Z,4.25
2023-01-30T20:05:14.623Z,4.47
2023-01-30T20:07:46.095Z,4.80
2023-01-30T20:10:18.059Z,4.50
2023-01-30T20:12:49.956Z,4.63
2023-01-30T20:15:21.377Z,4.35
2023-01-30T20:17:52.815Z,5.13
2023-01-30T20:20:24.261Z,4.60
2023-01-30T20:22:55.706Z,4.25
2023-01-30T20:25:27.149Z,4.65
2023-01-30T20:27:58.627Z,4.63
2023-01-30T20:30:30.105Z,4.38
2023-01-30T20:33:01.569Z,5.40
2023-01-30T20:35:34.740Z,4.90
2023-01-30T20:38:07.555Z,4.88
2023-01-30T20:40:39.027Z,4.80
2023-01-30T20:43:10.416Z,4.00
2023-01-30T20:45:41.829Z,4.70
2023-01-30T20:48:13.288Z,4.72
2023-01-30T20:50:44.671Z,4.32
2023-01-30T20:53:16.086Z,4.75
2023-01-30T20:55:47.501Z,4.00
2023-01-30T20:58:18.931Z,4.32
2023-01-30T21:00:50.441Z,3.97
2023-01-30T21:03:25.090Z,4.60
2023-01-30T21:05:58.627Z,4.40
2023-01-30T21:08:30.354Z,4.38
2023-01-30T21:11:10.563Z,4.78
2023-01-30T21:13:42.442Z,4.53
2023-01-30T21:16:22.558Z,4.85
2023-01-30T21:19:01.406Z,4.95
2023-01-30T21:21:40.992Z,5.60
2023-01-30T21:24:14.548Z,5.05
2023-01-30T21:26:46.804Z,4.97
2023-01-30T21:29:21.926Z,4.13
2023-01-30T21:31:53.965Z,3.95
2023-01-30T21:34:25.793Z,4.78
2023-01-30T21:36:57.204Z,5.17
2023-01-30T21:39:28.648Z,5.05
2023-01-30T21:42:00.113Z,4.43
2023-01-30T21:44:34.550Z,4.47
2023-01-30T21:47:06.987Z,3.70
2023-01-30T21:49:38.881Z,4.47
2023-01-30T21:52:10.330Z,4.40
2023-01-30T21:54:41.787Z,5.10
2023-01-30T21:57:13.238Z,4.60
2023-01-30T21:59:44.628Z,4.72
2023-01-30T22:02:16.083Z,4.63
2023-01-30T22:04:47.542Z,5.25
2023-01-30T22:07:19.113Z,4.50
2023-01-30T22:09:50.563Z,4.30
2023-01-30T22:12:22.007Z,4.35
2023-01-30T22:14:53.650Z,4.53
2023-01-30T22:17:25.128Z,4.18
2023-01-30T22:19:56.704Z,4.23
2023-01-30T22:22:30.929Z,4.43
2023-01-30T22:25:02.405Z,4.32
2023-01-30T22:27:33.877Z,4.45
2023-01-30T22:30:05.749Z,3.97
2023-01-30T22:32:37.416Z,4.82
2023-01-30T22:35:09.023Z,4.75
2023-01-30T22:37:40.428Z,3.90
2023-01-30T22:40:12.651Z,4.55
2023-01-30T22:42:47.528Z,5.13
2023-01-30T22:45:19.240Z,4.65
2023-01-30T22:47:50.839Z,4.57
2023-01-30T22:50:22.301Z,3.83
2023-01-30T22:52:55.267Z,4.72
2023-01-30T22:55:26.743Z,4.20
2023-01-30T22:57:58.171Z,3.40
2023-01-30T23:00:29.755Z,4.32
2023-01-30T23:03:01.705Z,4.27
2023-01-30T23:05:33.107Z,4.50
2023-01-30T23:08:04.750Z,5.25
2023-01-30T23:10:39.493Z,4.80
2023-01-30T23:13:10.901Z,4.47
2023-01-30T23:15:42.447Z,4.55
2023-01-30T23:18:14.755Z,4.70
2023-01-30T23:20:46.835Z,4.88
2023-01-30T23:23:18.301Z,4.43
2023-01-30T23:25:49.812Z,4.35
2023-01-30T23:28:21.240Z,4.07
2023-01-30T23:30:52.724Z,4.88
2023-01-30T23:33:24.206Z,4.43
2023-01-30T23:35:55.687Z,4.47
2023-01-30T23:38:27.123Z,5.10
2023-01-30T23:41:13.855Z,5.20
2023-01-30T23:43:46.557Z,4.93
2023-01-30T23:46:26.320Z,5.18
2023-01-30T23:49:00.440Z,5.18
2023-01-30T23:51:34.320Z,5.30
2023-01-30T23:54:06.206Z,4.72
2023-01-30T23:56:39.961Z,4.87
2023-01-30T23:59:12.073Z,4.57
